createdAt,value
2022-12-14T13:14:39.426Z,6.01
2022-12-14T13:17:14.742Z,6.74
2022-12-14T13:19:51.238Z,6.67
2022-12-14T13:22:25.763Z,6.83
2022-12-14T13:24:58.996Z,6.79
2022-12-14T13:27:40.755Z,6.85
2022-12-14T13:30:33.903Z,6.86
2022-12-14T13:33:50.862Z,6.89
2022-12-14T13:36:55.651Z,6.63
2022-12-14T13:39:33.950Z,6.59
2022-12-14T13:42:23.370Z,6.67
2022-12-14T13:45:03.887Z,6.50
2022-12-14T13:47:38.953Z,6.33
2022-12-14T13:52:59.359Z,6.91
2022-12-14T13:55:53.196Z,6.93
2022-12-14T13:58:31.934Z,6.90
2022-12-14T14:01:07.295Z,6.89
2022-12-14T14:03:34.034Z,7.28
2022-12-14T14:06:12.890Z,7.26
2022-12-14T14:08:42.574Z,6.98
2022-12-14T14:14:43.731Z,6.92
2022-12-14T14:17:38.070Z,7.09
2022-12-14T14:20:24.746Z,7.24
2022-12-14T14:23:16.283Z,7.55
2022-12-14T14:25:48.642Z,7.49
2022-12-14T14:28:22.465Z,7.60
2022-12-14T14:30:56.642Z,7.44
2022-12-14T14:33:47.339Z,7.50
2022-12-14T14:36:32.861Z,7.69
2022-12-14T14:39:01.989Z,7.80
2022-12-14T14:41:36.060Z,7.82
2022-12-14T14:44:17.444Z,7.78
2022-12-14T14:46:50.128Z,7.79
2022-12-14T14:49:30.644Z,7.64
2022-12-14T14:52:17.118Z,7.84
2022-12-14T14:55:16.322Z,7.62
2022-12-14T14:57:54.305Z,7.70
2022-12-14T15:00:20.845Z,7.73
2022-12-14T15:02:50.738Z,7.81
2022-12-14T15:08:22.648Z,7.74
2022-12-14T15:10:50.382Z,7.72
2022-12-14T15:13:24.841Z,7.77
2022-12-14T15:15:53.138Z,7.81
2022-12-14T15:18:27.637Z,7.81
2022-12-14T15:21:01.877Z,7.82
2022-12-14T15:23:43.195Z,7.78
2022-12-14T15:26:21.422Z,7.90
2022-12-14T15:28:50.853Z,7.95
2022-12-14T15:31:19.773Z,7.95
2022-12-14T15:33:48.617Z,7.90
2022-12-14T15:36:17.998Z,7.91
2022-12-14T15:38:55.976Z,7.95
2022-12-14T15:41:24.936Z,7.76
2022-12-14T15:43:56.470Z,7.72
2022-12-14T15:46:29.498Z,7.78
2022-12-14T15:48:58.678Z,7.63
2022-12-14T15:51:32.109Z,7.67
2022-12-14T15:54:00.864Z,7.60
2022-12-14T15:56:40.830Z,7.59
2022-12-14T15:59:14.780Z,7.62
2022-12-14T16:01:47.373Z,7.68
2022-12-14T16:04:22.681Z,7.87
2022-12-14T16:06:53.349Z,7.75
2022-12-14T16:09:28.718Z,7.77
2022-12-14T16:12:01.201Z,7.53
2022-12-14T16:14:43.989Z,7.72
2022-12-14T16:17:17.633Z,7.71
2022-12-14T16:19:59.472Z,7.85
2022-12-14T16:22:32.229Z,7.88
2022-12-14T16:25:08.107Z,7.94
2022-12-14T16:27:41.500Z,8.11
2022-12-14T16:30:32.901Z,7.97
2022-12-14T16:33:19.890Z,7.98
2022-12-14T16:35:57.701Z,8.02
2022-12-14T16:38:24.824Z,8.04
2022-12-14T16:41:00.122Z,7.99
2022-12-14T16:43:34.694Z,7.80
2022-12-14T16:46:08.438Z,7.91
2022-12-14T16:48:40.876Z,8.09
2022-12-14T16:51:58.157Z,8.12
2022-12-14T16:54:33.282Z,8.15
2022-12-14T16:57:04.321Z,8.14
2022-12-14T16:59:39.803Z,8.21
2022-12-14T17:02:21.929Z,8.31
2022-12-14T17:04:48.673Z,8.27
2022-12-14T17:07:15.611Z,8.27
2022-12-14T17:09:42.347Z,8.34
2022-12-14T17:12:17.432Z,8.61
2022-12-14T17:14:50.074Z,8.61
2022-12-14T17:17:24.544Z,8.65
2022-12-14T17:19:51.302Z,8.66
2022-12-14T17:22:30.915Z,8.44
2022-12-14T17:24:59.270Z,8.44
2022-12-14T17:27:26.799Z,8.44
2022-12-14T17:29:54.796Z,8.43
2022-12-14T17:32:22.368Z,8.46
2022-12-14T17:34:48.971Z,8.38
2022-12-14T17:37:18.473Z,8.43
2022-12-14T17:39:45.053Z,8.47
2022-12-14T17:42:14.670Z,8.46
2022-12-14T17:44:42.684Z,8.50
2022-12-14T17:47:18.376Z,8.40
2022-12-14T17:49:45.097Z,8.38
2022-12-14T17:52:18.397Z,8.41
2022-12-14T17:54:45.462Z,8.40
